createdAt,value
2023-04-15T00:01:10.223Z,8.80
2023-04-15T00:05:19.353Z,8.70
2023-04-15T00:09:30.070Z,8.70
2023-04-15T00:13:39.825Z,8.70
2023-04-15T00:17:49.040Z,8.70
2023-04-15T00:21:58.306Z,8.80
2023-04-15T00:26:09.091Z,8.80
2023-04-15T00:30:18.185Z,8.80
2023-04-15T00:34:28.168Z,8.80
2023-04-15T00:38:38.009Z,8.90
2023-04-15T00:42:48.721Z,8.90
2023-04-15T00:46:58.805Z,8.90
2023-04-15T00:51:09.938Z,8.90
2023-04-15T00:55:19.611Z,8.90
2023-04-15T00:59:31.069Z,8.90
2023-04-15T01:03:40.706Z,8.90
2023-04-15T01:07:50.794Z,9.00
2023-04-15T01:11:59.853Z,9.00
2023-04-15T01:16:11.100Z,9.00
2023-04-15T01:20:20.628Z,9.00
2023-04-15T01:24:32.445Z,9.00
2023-04-15T01:28:43.990Z,8.90
2023-04-15T01:32:53.575Z,8.80
2023-04-15T01:37:02.731Z,8.90
2023-04-15T01:41:11.948Z,8.80
2023-04-15T01:45:22.692Z,8.80
2023-04-15T01:49:31.686Z,8.70
2023-04-15T01:53:41.113Z,8.60
2023-04-15T01:57:50.182Z,8.50
2023-04-15T02:02:01.804Z,8.50
2023-04-15T02:06:10.852Z,8.50
2023-04-15T02:10:20.196Z,8.50
2023-04-15T02:14:29.258Z,8.50
2023-04-15T02:18:39.897Z,8.50
2023-04-15T02:22:49.379Z,8.40
2023-04-15T02:26:58.641Z,8.30
2023-04-15T02:31:08.597Z,8.40
2023-04-15T02:35:20.210Z,8.40
2023-04-15T02:39:29.280Z,8.40
2023-04-15T02:43:40.279Z,8.40
2023-04-15T02:47:49.509Z,8.50
2023-04-15T02:52:01.035Z,8.40
2023-04-15T02:56:10.455Z,8.50
2023-04-15T03:00:19.657Z,8.50
2023-04-15T03:04:30.393Z,8.50
2023-04-15T03:08:41.135Z,8.40
2023-04-15T03:12:50.392Z,8.50
2023-04-15T03:17:00.054Z,8.40
2023-04-15T03:21:09.818Z,8.30
2023-04-15T03:25:20.461Z,8.40
2023-04-15T03:29:29.741Z,8.30
2023-04-15T03:33:38.810Z,8.30
2023-04-15T03:37:49.515Z,8.30
2023-04-15T03:42:00.456Z,8.30
2023-04-15T03:46:09.814Z,8.40
2023-04-15T03:50:19.084Z,8.40
2023-04-15T03:54:28.217Z,8.40
2023-04-15T03:58:39.194Z,8.30
2023-04-15T04:02:48.704Z,8.30
2023-04-15T04:06:58.097Z,8.30
2023-04-15T04:11:07.738Z,8.40
2023-04-15T04:15:18.628Z,8.40
2023-04-15T04:19:27.872Z,8.30
2023-04-15T04:23:36.953Z,8.30
2023-04-15T04:27:46.709Z,8.30
2023-04-15T04:31:57.371Z,8.40
2023-04-15T04:36:07.317Z,8.40
2023-04-15T04:40:16.568Z,8.40
2023-04-15T04:44:25.770Z,8.40
2023-04-15T04:48:36.411Z,8.30
2023-04-15T04:52:45.549Z,8.30
2023-04-15T04:56:54.749Z,8.30
2023-04-15T05:01:04.590Z,8.30
2023-04-15T05:05:15.566Z,8.30
2023-04-15T05:09:24.589Z,8.20
2023-04-15T05:13:33.999Z,8.00
2023-04-15T05:17:43.279Z,7.90
2023-04-15T05:21:54.084Z,7.90
2023-04-15T05:26:03.224Z,7.90
2023-04-15T05:30:13.748Z,7.90
2023-04-15T05:34:23.352Z,7.90
2023-04-15T05:38:34.172Z,7.90
2023-04-15T05:42:43.756Z,7.80
2023-04-15T05:46:52.891Z,7.80
2023-04-15T05:51:02.117Z,7.80
2023-04-15T05:55:13.094Z,7.90
2023-04-15T05:59:22.334Z,7.90
2023-04-15T06:03:31.808Z,7.90
2023-04-15T06:07:41.290Z,7.90
2023-04-15T06:11:52.052Z,7.80
2023-04-15T06:16:01.214Z,7.90
2023-04-15T06:20:11.658Z,8.00
2023-04-15T06:24:20.756Z,8.00
2023-04-15T06:28:31.677Z,8.10
2023-04-15T06:32:40.779Z,8.10
2023-04-15T06:36:49.931Z,8.20
2023-04-15T06:40:59.151Z,8.20
2023-04-15T06:45:11.189Z,8.30
2023-04-15T06:49:20.307Z,8.50
2023-04-15T06:53:29.711Z,8.60
2023-04-15T06:57:38.837Z,8.70
2023-04-15T07:01:50.022Z,8.90
2023-04-15T07:05:59.190Z,9.10
2023-04-15T07:10:10.205Z,9.20
2023-04-15T07:14:19.867Z,9.40
2023-04-15T07:18:30.413Z,9.50
2023-04-15T07:22:39.570Z,9.60
2023-04-15T07:26:49.534Z,9.80
2023-04-15T07:30:59.780Z,9.90
2023-04-15T07:35:11.929Z,10.10
2023-04-15T07:39:21.426Z,10.30
2023-04-15T07:43:30.558Z,10.40
2023-04-15T07:47:39.790Z,10.60
2023-04-15T07:51:51.893Z,10.80
2023-04-15T07:56:01.131Z,11.10
2023-04-15T08:00:11.735Z,11.30
2023-04-15T08:04:21.079Z,11.50
2023-04-15T08:08:31.711Z,11.80
2023-04-15T08:12:41.118Z,12.00
2023-04-15T08:16:50.294Z,12.40
2023-04-15T08:20:59.648Z,12.70
2023-04-15T08:25:11.248Z,13.00
2023-04-15T08:29:20.467Z,13.20
2023-04-15T08:33:29.771Z,13.40
2023-04-15T08:37:39.158Z,13.70
2023-04-15T08:41:53.430Z,14.00
2023-04-15T08:46:03.193Z,14.20
2023-04-15T08:50:12.974Z,14.60
2023-04-15T08:54:22.311Z,14.50
2023-04-15T08:58:33.354Z,14.60
2023-04-15T09:02:43.427Z,14.80
2023-04-15T09:06:53.161Z,14.80
2023-04-15T09:11:02.840Z,15.00
2023-04-15T09:15:15.893Z,15.30
2023-04-15T09:19:26.290Z,15.40
2023-04-15T09:23:35.928Z,15.60
2023-04-15T09:27:51.327Z,15.30
2023-04-15T09:32:12.208Z,14.80
2023-04-15T09:36:21.703Z,14.40
2023-04-15T09:40:34.591Z,14.60
2023-04-15T09:44:43.804Z,15.10
2023-04-15T09:49:09.932Z,15.10
2023-04-15T09:53:20.610Z,14.70
2023-04-15T09:57:36.799Z,14.60
2023-04-15T10:01:46.867Z,14.60
2023-04-15T10:06:00.749Z,15.10
2023-04-15T10:10:10.806Z,15.20
2023-04-15T10:14:22.137Z,15.10
2023-04-15T10:18:32.917Z,15.40
2023-04-15T10:22:45.200Z,15.80
2023-04-15T10:26:54.720Z,15.50
2023-04-15T10:31:04.367Z,15.50
2023-04-15T10:35:13.564Z,15.40
2023-04-15T10:39:44.689Z,15.30
2023-04-15T10:43:56.257Z,15.90
2023-04-15T10:48:08.535Z,16.10
2023-04-15T10:52:19.278Z,15.70
2023-04-15T10:56:31.180Z,15.50
2023-04-15T11:00:40.231Z,15.80
2023-04-15T11:04:57.747Z,16.10
2023-04-15T11:09:09.959Z,16.50
2023-04-15T11:13:29.662Z,16.50
2023-04-15T11:17:38.725Z,16.40
2023-04-15T11:21:47.793Z,16.70
2023-04-15T11:25:57.617Z,17.20
2023-04-15T11:30:22.291Z,17.60
2023-04-15T11:34:32.343Z,17.70
2023-04-15T11:38:45.391Z,17.50
2023-04-15T11:43:06.572Z,16.40
2023-04-15T11:47:26.250Z,16.40
2023-04-15T11:51:36.197Z,16.80
2023-04-15T11:55:46.648Z,17.10
2023-04-15T11:59:57.484Z,17.30
2023-04-15T12:04:15.776Z,16.80
2023-04-15T12:08:24.931Z,17.00
2023-04-15T12:12:34.114Z,17.20
2023-04-15T12:16:49.011Z,17.40
2023-04-15T12:21:11.095Z,17.50
2023-04-15T12:25:20.253Z,17.30
2023-04-15T12:29:30.732Z,17.80
2023-04-15T12:33:39.976Z,18.10
2023-04-15T12:37:52.840Z,18.00
2023-04-15T12:42:02.059Z,18.00
2023-04-15T12:46:11.273Z,18.10
2023-04-15T12:50:20.477Z,18.20
2023-04-15T12:54:31.740Z,18.20
2023-04-15T12:58:40.793Z,17.90
2023-04-15T13:02:50.124Z,17.60
2023-04-15T13:06:59.354Z,17.90
2023-04-15T13:11:10.253Z,18.40
2023-04-15T13:15:21.016Z,18.40
2023-04-15T13:19:31.257Z,18.00
2023-04-15T13:23:40.263Z,17.70
2023-04-15T13:27:51.511Z,17.60
2023-04-15T13:32:01.944Z,17.20
2023-04-15T13:36:11.396Z,17.40
2023-04-15T13:40:22.180Z,17.70
2023-04-15T13:44:32.824Z,18.10
2023-04-15T13:48:41.942Z,18.30
2023-04-15T13:52:50.915Z,18.40
2023-04-15T13:57:00.017Z,18.30
2023-04-15T14:01:10.691Z,18.20
2023-04-15T14:05:19.926Z,18.20
2023-04-15T14:09:29.125Z,18.30
2023-04-15T14:13:38.277Z,18.30
2023-04-15T14:17:48.929Z,18.40
2023-04-15T14:21:58.165Z,18.50
2023-04-15T14:26:07.418Z,18.60
2023-04-15T14:30:16.949Z,18.60
2023-04-15T14:34:27.552Z,18.50
2023-04-15T14:38:38.826Z,18.70
2023-04-15T14:42:48.398Z,18.80
2023-04-15T14:46:58.077Z,18.70
2023-04-15T14:51:09.030Z,18.60
2023-04-15T14:55:18.556Z,18.60
2023-04-15T14:59:27.913Z,18.60
2023-04-15T15:03:37.039Z,18.50
2023-04-15T15:07:47.714Z,18.40
2023-04-15T15:11:57.245Z,18.40
2023-04-15T15:16:07.405Z,18.50
2023-04-15T15:20:16.974Z,18.60
2023-04-15T15:24:27.516Z,18.60
2023-04-15T15:28:36.834Z,18.60
2023-04-15T15:32:46.090Z,18.60
2023-04-15T15:36:55.576Z,18.50
2023-04-15T15:41:06.618Z,18.20
2023-04-15T15:45:15.684Z,18.00
2023-04-15T15:49:25.595Z,17.90
2023-04-15T15:53:36.094Z,17.80
2023-04-15T15:57:46.755Z,17.50
2023-04-15T16:01:56.284Z,17.10
2023-04-15T16:06:06.082Z,16.90
2023-04-15T16:10:15.056Z,16.60
2023-04-15T16:14:26.615Z,16.60
2023-04-15T16:18:35.799Z,16.80
2023-04-15T16:22:45.043Z,17.00
2023-04-15T16:26:54.234Z,17.10
2023-04-15T16:31:04.957Z,17.10
2023-04-15T16:35:16.494Z,17.00
2023-04-15T16:39:25.574Z,16.80
2023-04-15T16:43:34.736Z,16.60
2023-04-15T16:47:45.355Z,16.50
2023-04-15T16:51:54.931Z,16.60
2023-04-15T16:56:04.294Z,16.80
2023-04-15T17:00:14.354Z,16.80
2023-04-15T17:04:25.140Z,17.00
2023-04-15T17:08:34.411Z,17.00
2023-04-15T17:12:43.736Z,16.90
2023-04-15T17:16:53.032Z,16.90
2023-04-15T17:21:04.092Z,16.80
2023-04-15T17:25:13.229Z,16.80
2023-04-15T17:29:22.372Z,16.60
2023-04-15T17:33:55.446Z,16.50
2023-04-15T17:38:02.691Z,16.30
2023-04-15T17:42:12.435Z,16.10
2023-04-15T17:46:21.884Z,15.90
2023-04-15T17:50:31.014Z,15.70
2023-04-15T17:54:41.676Z,15.40
2023-04-15T17:58:50.854Z,15.20
2023-04-15T18:03:00.352Z,15.00
2023-04-15T18:07:21.631Z,14.80
2023-04-15T18:11:34.217Z,14.60
2023-04-15T18:15:45.566Z,14.50
2023-04-15T18:19:55.898Z,14.40
2023-04-15T18:24:05.168Z,14.30
2023-04-15T18:28:16.150Z,14.20
2023-04-15T18:32:25.365Z,14.10
2023-04-15T18:36:34.518Z,14.00
2023-04-15T18:40:43.553Z,13.90
2023-04-15T18:44:55.254Z,13.90
2023-04-15T18:49:04.888Z,13.70
2023-04-15T18:53:14.137Z,13.60
2023-04-15T18:57:28.767Z,13.50
2023-04-15T19:01:45.817Z,13.40
2023-04-15T19:05:55.016Z,13.30
2023-04-15T19:10:04.713Z,13.10
2023-04-15T19:14:13.900Z,12.90
2023-04-15T19:18:24.536Z,12.80
2023-04-15T19:22:33.761Z,12.60
2023-04-15T19:26:42.996Z,12.60
2023-04-15T19:30:52.757Z,12.50
2023-04-15T19:35:03.313Z,12.40
2023-04-15T19:39:12.537Z,12.30
2023-04-15T19:43:21.699Z,12.10
2023-04-15T19:47:30.723Z,12.10
2023-04-15T19:51:43.140Z,11.90
2023-04-15T19:55:52.174Z,11.90
2023-04-15T20:00:01.448Z,11.70
2023-04-15T20:04:10.684Z,11.60
2023-04-15T20:08:21.638Z,11.50
2023-04-15T20:12:51.301Z,11.40
2023-04-15T20:17:00.142Z,11.30
2023-04-15T20:21:10.514Z,11.20
2023-04-15T20:25:21.671Z,11.20
2023-04-15T20:29:30.741Z,11.10
2023-04-15T20:33:39.856Z,11.10
2023-04-15T20:37:50.076Z,11.00
2023-04-15T20:42:01.683Z,11.00
2023-04-15T20:46:20.641Z,11.00
2023-04-15T20:50:30.914Z,11.00
2023-04-15T20:54:39.995Z,11.00
2023-04-15T20:58:50.549Z,10.90
2023-04-15T21:03:00.019Z,10.90
2023-04-15T21:07:09.717Z,10.80
2023-04-15T21:11:40.605Z,10.70
2023-04-15T21:15:54.442Z,10.60
2023-04-15T21:20:07.009Z,10.50
2023-04-15T21:24:16.193Z,10.40
2023-04-15T21:28:28.234Z,10.30
2023-04-15T21:32:38.827Z,10.30
2023-04-15T21:36:47.967Z,10.20
2023-04-15T21:40:57.336Z,10.20
2023-04-15T21:45:06.874Z,10.10
2023-04-15T21:49:22.697Z,10.00
2023-04-15T21:53:33.530Z,9.80
2023-04-15T21:57:42.854Z,9.80
2023-04-15T22:01:52.036Z,9.70
2023-04-15T22:06:02.949Z,9.70
2023-04-15T22:10:12.732Z,9.80
2023-04-15T22:14:21.895Z,9.80
2023-04-15T22:18:30.987Z,9.70
2023-04-15T22:22:44.380Z,9.70
2023-04-15T22:26:53.786Z,9.50
2023-04-15T22:31:03.136Z,9.40
2023-04-15T22:35:12.210Z,9.40
2023-04-15T22:39:22.993Z,9.20
2023-04-15T22:43:32.387Z,9.10
2023-04-15T22:47:41.530Z,9.10
2023-04-15T22:51:50.667Z,8.90
2023-04-15T22:56:01.346Z,8.80
2023-04-15T23:00:11.447Z,8.60
2023-04-15T23:04:24.935Z,8.60
2023-04-15T23:08:35.606Z,8.60
2023-04-15T23:12:46.163Z,8.60
2023-04-15T23:16:55.422Z,8.60
2023-04-15T23:21:05.718Z,8.60
2023-04-15T23:25:14.832Z,8.60
2023-04-15T23:29:25.486Z,8.60
2023-04-15T23:33:34.647Z,8.60
2023-04-15T23:37:43.817Z,8.40
2023-04-15T23:41:52.997Z,8.30
2023-04-15T23:46:03.604Z,8.20
2023-04-15T23:50:13.349Z,8.10
2023-04-15T23:54:22.477Z,8.10
2023-04-15T23:58:34.440Z,8.00
